Time,TemperatureF,DewpointF,PressureIn,WindDirection,WindDirectionDegrees,WindSpeedMPH,WindSpeedGustMPH,Humidity,HourlyPrecipIn,Conditions,Clouds,dailyrainin,SoftwareType,DateUTC
2013-11-12 00:00:00,55.7,51.0,30.09,East,79,0.0,0.0,84,0.00,,BKN034,0.00,VWS V15.00,2013-11-12 08:00:00,
2013-11-12 00:01:00,55.7,51.3,30.08,East,79,0.0,0.0,85,0.00,,CLR,0.00,VWS V14.00,2013-11-12 08:01:00,
2013-11-12 00:06:00,55.9,51.5,30.08,East,79,0.0,0.0,85,0.00,,CLR,0.00,VWS V14.00,2013-11-12 08:06:00,
2013-11-12 00:11:00,55.8,51.4,30.09,East,79,0.0,0.0,85,0.00,,CLR,0.00,VWS V14.00,2013-11-12 08:11:00,
2013-11-12 00:16:00,55.7,51.3,30.08,East,79,0.0,0.0,85,0.00,,CLR,0.00,VWS V14.00,2013-11-12 08:16:00,
2013-11-12 00:21:00,55.8,51.4,30.07,East,79,0.0,0.0,85,0.00,,CLR,0.00,VWS V14.00,2013-11-12 08:21:00,
2013-11-12 00:26:00,55.7,51.3,30.07,East,79,0.0,0.0,85,0.00,,CLR,0.00,VWS V14.00,2013-11-12 08:26:00,
2013-11-12 00:30:00,55.8,51.4,30.07,East,79,0.0,0.0,85,0.00,,BKN034,0.00,VWS V15.00,2013-11-12 08:30:00,
2013-11-12 00:31:00,55.8,51.4,30.07,East,79,0.0,0.0,85,0.00,,CLR,0.00,VWS V14.00,2013-11-12 08:31:00,
2013-11-12 00:36:00,55.8,51.4,30.07,East,79,0.0,0.0,85,0.00,,CLR,0.00,VWS V14.00,2013-11-12 08:36:00,
2013-11-12 00:41:00,55.7,51.6,30.07,East,79,0.0,0.0,86,0.00,,CLR,0.00,VWS V14.00,2013-11-12 08:41:00,
2013-11-12 00:46:00,55.7,51.3,30.07,East,79,0.0,0.0,85,0.00,,CLR,0.00,VWS V14.00,2013-11-12 08:46:00,
2013-11-12 00:51:00,55.4,51.3,30.07,East,79,0.0,0.0,86,0.00,,CLR,0.00,VWS V14.00,2013-11-12 08:51:00,
2013-11-12 00:56:00,55.5,51.4,30.07,East,79,0.0,0.0,86,0.00,,CLR,0.00,VWS V14.00,2013-11-12 08:56:00,
2013-11-12 01:00:00,55.4,51.3,30.08,East,79,0.0,0.0,86,0.00,,BKN034,0.00,VWS V15.00,2013-11-12 09:00:00,
2013-11-12 01:01:00,55.2,51.1,30.08,ENE,78,0.0,0.0,86,0.00,,CLR,0.00,VWS V14.00,2013-11-12 09:01:00,
2013-11-12 01:06:00,55.3,51.2,30.08,East,79,0.0,0.0,86,0.00,,CLR,0.00,VWS V14.00,2013-11-12 09:06:00,
2013-11-12 01:11:00,55.4,51.6,30.08,East,79,0.0,0.0,87,0.00,,CLR,0.00,VWS V14.00,2013-11-12 09:11:00,
2013-11-12 01:16:00,55.5,51.7,30.08,East,79,0.0,0.0,87,0.00,,CLR,0.00,VWS V14.00,2013-11-12 09:16:00,
2013-11-12 01:21:00,55.2,51.1,30.08,East,79,0.0,0.0,86,0.00,,CLR,0.00,VWS V14.00,2013-11-12 09:21:00,
2013-11-12 01:26:00,55.3,51.5,30.08,East,79,0.0,0.0,87,0.00,,CLR,0.00,VWS V14.00,2013-11-12 09:26:00,
2013-11-12 01:30:00,55.3,51.5,30.08,East,79,0.0,0.0,87,0.00,,BKN034,0.00,VWS V15.00,2013-11-12 09:30:00,
2013-11-12 01:31:00,55.4,51.6,30.08,East,79,0.0,0.0,87,0.00,,CLR,0.00,VWS V14.00,2013-11-12 09:31:00,
2013-11-12 01:36:00,55.5,51.7,30.09,East,79,0.0,0.0,87,0.00,,CLR,0.00,VWS V14.00,2013-11-12 09:36:00,
2013-11-12 01:41:00,55.3,51.5,30.10,East,79,0.0,0.0,87,0.00,,CLR,0.00,VWS V14.00,2013-11-12 09:41:00,
2013-11-12 01:46:00,55.4,51.6,30.09,East,79,0.0,0.0,87,0.00,,CLR,0.00,VWS V14.00,2013-11-12 09:46:00,
2013-11-12 01:51:00,55.3,51.5,30.10,East,79,0.0,0.0,87,0.00,,CLR,0.00,VWS V14.00,2013-11-12 09:51:00,
2013-11-12 01:56:00,55.4,51.6,30.10,East,79,0.0,0.0,87,0.00,,CLR,0.00,VWS V14.00,2013-11-12 09:56:00,
2013-11-12 02:00:00,55.3,51.5,30.10,East,79,0.0,0.0,87,0.00,,BKN034,0.00,VWS V15.00,2013-11-12 10:00:00,
2013-11-12 02:01:00,55.3,51.5,30.11,East,79,0.0,0.0,87,0.00,,CLR,0.00,VWS V14.00,2013-11-12 10:01:00,
2013-11-12 02:06:00,55.2,51.4,30.11,East,79,0.0,0.0,87,0.00,,CLR,0.00,VWS V14.00,2013-11-12 10:06:00,
2013-11-12 02:11:00,55.2,51.4,30.11,East,79,0.0,0.0,87,0.00,,CLR,0.00,VWS V14.00,2013-11-12 10:11:00,
2013-11-12 02:16:00,55.1,51.3,30.11,East,79,0.0,0.0,87,0.00,,CLR,0.00,VWS V14.00,2013-11-12 10:16:00,
2013-11-12 02:21:00,55.1,51.3,30.11,East,79,0.0,0.0,87,0.00,,CLR,0.00,VWS V14.00,2013-11-12 10:21:00,
2013-11-12 02:26:00,55.2,51.4,30.11,ENE,78,0.0,0.0,87,0.00,,CLR,0.00,VWS V14.00,2013-11-12 10:26:00,
2013-11-12 02:30:00,55.2,51.4,30.11,East,79,0.0,0.0,87,0.00,,BKN034,0.00,VWS V15.00,2013-11-12 10:30:00,
2013-11-12 02:31:00,55.1,51.3,30.11,East,79,0.0,0.0,87,0.00,,CLR,0.00,VWS V14.00,2013-11-12 10:31:00,
2013-11-12 02:36:00,55.0,51.2,30.11,East,79,0.0,0.0,87,0.00,,CLR,0.00,VWS V14.00,2013-11-12 10:36:00,
2013-11-12 02:41:00,55.0,51.2,30.12,East,79,0.0,0.0,87,0.00,,CLR,0.00,VWS V14.00,2013-11-12 10:41:00,
2013-11-12 02:46:00,55.1,51.3,30.11,East,79,0.0,0.0,87,0.00,,CLR,0.00,VWS V14.00,2013-11-12 10:46:00,
2013-11-12 02:51:00,54.8,51.0,30.12,East,79,0.0,0.0,87,0.00,,CLR,0.00,VWS V14.00,2013-11-12 10:51:00,
2013-11-12 02:56:00,55.0,51.2,30.12,East,79,0.0,0.0,87,0.00,,CLR,0.00,VWS V14.00,2013-11-12 10:56:00,
2013-11-12 03:00:00,55.0,51.2,30.10,East,79,0.0,0.0,87,0.00,,BKN034,0.00,VWS V15.00,2013-11-12 11:00:00,
2013-11-12 03:01:00,55.1,51.3,30.10,East,79,0.0,0.0,87,0.00,,CLR,0.00,VWS V14.00,2013-11-12 11:01:00,
2013-11-12 03:06:00,55.1,51.3,30.10,East,79,0.0,0.0,87,0.00,,CLR,0.00,VWS V14.00,2013-11-12 11:06:00,
2013-11-12 03:11:00,55.1,51.3,30.10,East,79,0.0,0.0,87,0.00,,CLR,0.00,VWS V14.00,2013-11-12 11:11:00,
2013-11-12 03:16:00,55.1,51.3,30.09,East,79,0.0,0.0,87,0.00,,CLR,0.00,VWS V14.00,2013-11-12 11:16:00,
2013-11-12 03:21:00,55.0,51.2,30.10,ENE,78,0.0,0.0,87,0.00,,CLR,0.00,VWS V14.00,2013-11-12 11:21:00,
2013-11-12 03:26:00,55.3,51.5,30.10,East,79,0.0,0.0,87,0.00,,CLR,0.00,VWS V14.00,2013-11-12 11:26:00,
2013-11-12 03:30:00,55.2,51.4,30.10,East,79,0.0,0.0,87,0.00,,BKN034,0.00,VWS V15.00,2013-11-12 11:30:00,
2013-11-12 03:31:00,55.2,51.4,30.11,East,79,0.0,0.0,87,0.00,,CLR,0.00,VWS V14.00,2013-11-12 11:31:00,
2013-11-12 03:36:00,55.3,51.2,30.11,East,79,0.0,0.0,86,0.00,,CLR,0.00,VWS V14.00,2013-11-12 11:36:00,
2013-11-12 03:42:00,55.1,51.3,30.10,ENE,78,0.0,0.0,87,0.00,,CLR,0.00,VWS V14.00,2013-11-12 11:42:00,
2013-11-12 03:47:00,55.4,51.6,30.12,East,79,0.0,0.0,87,0.00,,CLR,0.00,VWS V14.00,2013-11-12 11:47:00,
2013-11-12 03:51:00,55.1,51.3,30.11,East,79,0.0,0.0,87,0.00,,CLR,0.00,VWS V14.00,2013-11-12 11:51:00,
2013-11-12 03:57:00,54.8,51.0,30.12,East,79,0.0,0.0,87,0.00,,CLR,0.00,VWS V14.00,2013-11-12 11:57:00,
2013-11-12 04:00:00,54.9,51.1,30.11,East,79,0.0,0.0,87,0.00,,BKN034,0.00,VWS V15.00,2013-11-12 12:00:00,
2013-11-12 04:01:00,55.1,51.3,30.11,East,79,0.0,0.0,87,0.00,,CLR,0.00,VWS V14.00,2013-11-12 12:01:00,
2013-11-12 04:06:00,55.0,51.2,30.11,East,79,0.0,0.0,87,0.00,,CLR,0.00,VWS V14.00,2013-11-12 12:06:00,
2013-11-12 04:11:00,55.0,51.2,30.12,East,79,0.0,0.0,87,0.00,,CLR,0.00,VWS V14.00,2013-11-12 12:11:00,
2013-11-12 04:16:00,54.9,51.1,30.12,East,79,0.0,0.0,87,0.00,,CLR,0.00,VWS V14.00,2013-11-12 12:16:00,
2013-11-12 04:21:00,55.0,51.2,30.12,East,79,0.0,0.0,87,0.00,,CLR,0.00,VWS V14.00,2013-11-12 12:21:00,
2013-11-12 04:27:00,54.9,51.1,30.12,East,79,0.0,0.0,87,0.00,,CLR,0.00,VWS V14.00,2013-11-12 12:27:00,
2013-11-12 04:30:00,54.9,51.1,30.13,East,79,0.0,0.0,87,0.00,,BKN034,0.00,VWS V15.00,2013-11-12 12:30:00,
2013-11-12 04:32:00,54.9,51.4,30.13,East,79,0.0,0.0,88,0.00,,CLR,0.00,VWS V14.00,2013-11-12 12:32:00,
2013-11-12 04:36:00,54.9,51.4,30.14,East,79,0.0,0.0,88,0.00,,CLR,0.00,VWS V14.00,2013-11-12 12:36:00,
2013-11-12 04:41:00,55.0,51.5,30.13,East,79,0.0,0.0,88,0.00,,CLR,0.00,VWS V14.00,2013-11-12 12:41:00,
2013-11-12 04:47:00,55.0,51.5,30.14,ENE,78,0.0,0.0,88,0.00,,CLR,0.00,VWS V14.00,2013-11-12 12:47:00,
2013-11-12 04:51:00,54.8,51.3,30.14,East,79,0.0,0.0,88,0.00,,CLR,0.00,VWS V14.00,2013-11-12 12:51:00,
2013-11-12 04:57:00,54.9,51.1,30.15,East,79,0.0,0.0,87,0.00,,CLR,0.00,VWS V14.00,2013-11-12 12:57:00,
2013-11-12 05:00:00,54.9,51.1,30.15,East,79,0.0,0.0,87,0.00,,BKN034,0.00,VWS V15.00,2013-11-12 13:00:00,
2013-11-12 05:01:00,55.1,51.3,30.15,East,79,0.0,0.0,87,0.00,,CLR,0.00,VWS V14.00,2013-11-12 13:01:00,
2013-11-12 05:06:00,55.1,50.7,30.15,ENE,78,0.0,0.0,85,0.00,,CLR,0.00,VWS V14.00,2013-11-12 13:06:00,
2013-11-12 05:12:00,55.2,50.5,30.16,East,79,0.0,0.0,84,0.00,,CLR,0.00,VWS V14.00,2013-11-12 13:12:00,
2013-11-12 05:16:00,55.6,51.2,30.16,East,79,0.0,0.0,85,0.00,,CLR,0.00,VWS V14.00,2013-11-12 13:16:00,
2013-11-12 05:22:00,55.1,50.7,30.15,East,79,0.0,0.0,85,0.00,,CLR,0.00,VWS V14.00,2013-11-12 13:22:00,
2013-11-12 05:27:00,55.4,50.7,30.16,East,79,0.0,0.0,84,0.00,,CLR,0.00,VWS V14.00,2013-11-12 13:27:00,
2013-11-12 05:30:00,55.5,50.8,30.15,East,79,0.0,0.0,84,0.00,,BKN034,0.00,VWS V15.00,2013-11-12 13:30:00,
2013-11-12 05:32:00,55.3,50.6,30.15,East,79,0.0,0.0,84,0.00,,CLR,0.00,VWS V14.00,2013-11-12 13:32:00,
2013-11-12 05:37:00,55.0,50.3,30.16,East,79,0.0,0.0,84,0.00,,CLR,0.00,VWS V14.00,2013-11-12 13:37:00,
2013-11-12 05:42:00,55.2,50.5,30.16,East,79,0.0,0.0,84,0.00,,CLR,0.00,VWS V14.00,2013-11-12 13:42:00,
2013-11-12 05:46:00,55.2,50.5,30.17,ENE,78,0.0,0.0,84,0.00,,CLR,0.00,VWS V14.00,2013-11-12 13:46:00,
2013-11-12 05:52:00,55.2,50.8,30.16,East,79,0.0,0.0,85,0.00,,CLR,0.00,VWS V14.00,2013-11-12 13:52:00,
2013-11-12 05:57:00,55.2,50.8,30.16,ENE,78,0.0,0.0,85,0.00,,CLR,0.00,VWS V14.00,2013-11-12 13:57:00,
2013-11-12 06:00:00,55.1,50.7,30.16,East,79,0.0,0.0,85,0.00,,BKN034,0.00,VWS V15.00,2013-11-12 14:00:00,
2013-11-12 06:02:00,55.3,50.9,30.16,East,79,0.0,0.0,85,0.00,,CLR,0.00,VWS V14.00,2013-11-12 14:02:00,
2013-11-12 06:07:00,54.9,50.5,30.16,ENE,78,0.0,0.0,85,0.00,,CLR,0.00,VWS V14.00,2013-11-12 14:07:00,
2013-11-12 06:12:00,55.1,50.7,30.16,East,79,0.0,0.0,85,0.00,,CLR,0.00,VWS V14.00,2013-11-12 14:12:00,
2013-11-12 06:17:00,55.1,50.7,30.16,East,79,0.0,0.0,85,0.00,,CLR,0.00,VWS V14.00,2013-11-12 14:17:00,
2013-11-12 06:22:00,55.0,50.9,30.16,East,79,0.0,0.0,86,0.00,,CLR,0.00,VWS V14.00,2013-11-12 14:22:00,
2013-11-12 06:27:00,54.8,50.7,30.15,East,79,0.0,0.0,86,0.00,,CLR,0.00,VWS V14.00,2013-11-12 14:27:00,
2013-11-12 06:30:00,55.1,51.0,30.15,East,79,0.0,0.0,86,0.00,,BKN034,0.00,VWS V15.00,2013-11-12 14:30:00,
2013-11-12 06:32:00,55.2,51.1,30.15,East,79,0.0,0.0,86,0.00,,CLR,0.00,VWS V14.00,2013-11-12 14:32:00,
2013-11-12 06:37:00,55.0,50.9,30.15,East,79,0.0,0.0,86,0.00,,CLR,0.00,VWS V14.00,2013-11-12 14:37:00,
2013-11-12 06:42:00,55.0,50.9,30.15,East,79,0.0,0.0,86,0.00,,CLR,0.00,VWS V14.00,2013-11-12 14:42:00,
2013-11-12 06:47:00,55.1,51.0,30.14,ENE,78,0.0,0.0,86,0.00,,CLR,0.00,VWS V14.00,2013-11-12 14:47:00,
2013-11-12 06:52:00,54.8,50.7,30.15,East,79,0.0,0.0,86,0.00,,CLR,0.00,VWS V14.00,2013-11-12 14:52:00,
2013-11-12 06:57:00,55.0,50.9,30.14,ENE,78,0.0,0.0,86,0.00,,CLR,0.00,VWS V14.00,2013-11-12 14:57:00,
2013-11-12 07:00:00,55.0,50.9,30.15,East,79,0.0,0.0,86,0.00,,BKN034,0.00,VWS V15.00,2013-11-12 15:00:00,
2013-11-12 07:02:00,55.0,50.9,30.15,East,79,0.0,0.0,86,0.00,,CLR,0.00,VWS V14.00,2013-11-12 15:02:00,
2013-11-12 07:07:00,55.0,50.9,30.14,East,79,0.0,0.0,86,0.00,,CLR,0.00,VWS V14.00,2013-11-12 15:07:00,
2013-11-12 07:12:00,55.1,51.0,30.14,East,79,0.0,0.0,86,0.00,,CLR,0.00,VWS V14.00,2013-11-12 15:12:00,
2013-11-12 07:17:00,54.9,50.8,30.15,East,79,0.0,0.0,86,0.00,,CLR,0.00,VWS V14.00,2013-11-12 15:17:00,
2013-11-12 07:22:00,55.0,50.9,30.15,East,79,0.0,0.0,86,0.00,,CLR,0.00,VWS V14.00,2013-11-12 15:22:00,
2013-11-12 07:27:00,55.0,50.9,30.16,East,79,0.0,0.0,86,0.00,,CLR,0.00,VWS V14.00,2013-11-12 15:27:00,
2013-11-12 07:30:00,55.0,50.9,30.16,East,79,0.0,0.0,86,0.00,,BKN034,0.00,VWS V15.00,2013-11-12 15:30:00,
2013-11-12 07:32:00,55.4,51.3,30.17,East,79,0.0,0.0,86,0.00,,CLR,0.00,VWS V14.00,2013-11-12 15:32:00,
2013-11-12 07:37:00,55.2,51.1,30.16,East,79,0.0,0.0,86,0.00,,CLR,0.00,VWS V14.00,2013-11-12 15:37:00,
2013-11-12 07:42:00,55.2,51.4,30.15,East,79,0.0,0.0,87,0.00,,CLR,0.00,VWS V14.00,2013-11-12 15:42:00,
2013-11-12 07:47:00,55.1,51.3,30.16,East,79,0.0,0.0,87,0.00,,OVC120,0.00,VWS V14.00,2013-11-12 15:47:00,
2013-11-12 07:52:00,55.4,51.3,30.15,East,79,0.0,0.0,86,0.00,,OVC120,0.00,VWS V14.00,2013-11-12 15:52:00,
2013-11-12 07:57:00,55.5,51.7,30.15,East,79,0.0,0.0,87,0.00,,OVC120,0.00,VWS V14.00,2013-11-12 15:57:00,
2013-11-12 08:00:00,55.6,51.8,30.15,East,79,0.0,0.0,87,0.00,,BKN034,0.00,VWS V15.00,2013-11-12 16:00:00,
2013-11-12 08:02:00,55.5,51.7,30.15,East,79,0.0,0.0,87,0.00,,OVC120,0.00,VWS V14.00,2013-11-12 16:02:00,
2013-11-12 08:07:00,55.7,51.9,30.15,East,79,0.0,0.0,87,0.00,,OVC120,0.00,VWS V14.00,2013-11-12 16:07:00,
2013-11-12 08:12:00,55.5,51.7,30.16,East,79,0.0,0.0,87,0.00,,OVC120,0.00,VWS V14.00,2013-11-12 16:12:00,
2013-11-12 08:17:00,56.2,52.7,30.16,East,79,0.0,0.0,88,0.00,,OVC120,0.00,VWS V14.00,2013-11-12 16:17:00,
2013-11-12 08:22:00,55.8,52.3,30.16,East,80,0.0,0.0,88,0.00,,OVC120,0.00,VWS V14.00,2013-11-12 16:22:00,
2013-11-12 08:27:00,56.1,52.6,30.16,East,79,0.0,0.0,88,0.00,,OVC120,0.00,VWS V14.00,2013-11-12 16:27:00,
2013-11-12 08:30:00,56.3,52.5,30.17,East,79,0.0,0.0,87,0.00,,BKN034,0.00,VWS V15.00,2013-11-12 16:30:00,
2013-11-12 08:32:00,56.4,52.6,30.17,East,79,0.0,0.0,87,0.00,,OVC120,0.00,VWS V14.00,2013-11-12 16:32:00,
2013-11-12 08:37:00,56.7,52.6,30.16,East,79,0.0,0.0,86,0.00,,OVC120,0.00,VWS V14.00,2013-11-12 16:37:00,
2013-11-12 08:42:00,56.7,52.2,30.16,East,79,0.0,0.0,85,0.00,,OVC120,0.00,VWS V14.00,2013-11-12 16:42:00,
2013-11-12 08:47:00,57.0,52.5,30.17,East,79,0.0,0.0,85,0.00,,BKN110,0.00,VWS V14.00,2013-11-12 16:47:00,
2013-11-12 08:52:00,57.2,52.4,30.17,East,79,0.0,0.0,84,0.00,,BKN110,0.00,VWS V14.00,2013-11-12 16:52:00,
2013-11-12 08:57:00,57.5,52.4,30.17,East,79,0.0,0.0,83,0.00,,BKN110,0.00,VWS V14.00,2013-11-12 16:57:00,
2013-11-12 09:00:00,57.5,52.4,30.17,East,79,0.0,0.0,83,0.00,,BKN034,0.00,VWS V15.00,2013-11-12 17:00:00,
2013-11-12 09:02:00,57.8,52.3,30.16,East,79,0.0,0.0,82,0.00,,BKN110,0.00,VWS V14.00,2013-11-12 17:02:00,
2013-11-12 09:07:00,57.9,52.5,30.17,East,79,0.0,0.0,82,0.00,,BKN110,0.00,VWS V14.00,2013-11-12 17:07:00,
2013-11-12 09:12:00,58.2,52.4,30.16,East,79,0.0,0.0,81,0.00,,BKN110,0.00,VWS V14.00,2013-11-12 17:12:00,
2013-11-12 09:17:00,58.4,52.3,30.17,East,79,0.0,0.0,80,0.00,,BKN110,0.00,VWS V14.00,2013-11-12 17:17:00,
2013-11-12 09:22:00,58.5,52.0,30.17,East,79,0.0,0.0,79,0.00,,BKN110,0.00,VWS V14.00,2013-11-12 17:22:00,
2013-11-12 09:27:00,58.8,52.0,30.17,East,79,0.0,0.0,78,0.00,,BKN110,0.00,VWS V14.00,2013-11-12 17:27:00,
2013-11-12 09:30:00,59.1,51.9,30.16,East,79,0.0,0.0,77,0.00,,BKN034,0.00,VWS V15.00,2013-11-12 17:30:00,
2013-11-12 09:32:00,59.3,52.5,30.17,East,79,0.0,0.0,78,0.00,,BKN110,0.00,VWS V14.00,2013-11-12 17:32:00,
2013-11-12 09:37:00,59.3,52.1,30.16,East,79,0.0,0.0,77,0.00,,BKN110,0.00,VWS V14.00,2013-11-12 17:37:00,
2013-11-12 09:42:00,59.2,52.0,30.17,East,79,0.0,0.0,77,0.00,,BKN110,0.00,VWS V14.00,2013-11-12 17:42:00,
2013-11-12 09:47:00,59.6,52.7,30.17,East,79,0.0,0.0,78,0.00,,BKN090,0.00,VWS V14.00,2013-11-12 17:47:00,
2013-11-12 09:52:00,59.7,52.5,30.17,East,79,0.0,0.0,77,0.00,,BKN090,0.00,VWS V14.00,2013-11-12 17:52:00,
2013-11-12 09:57:00,59.7,52.5,30.18,East,79,0.0,0.0,77,0.00,,BKN090,0.00,VWS V14.00,2013-11-12 17:57:00,
2013-11-12 10:00:00,59.6,52.4,30.17,East,79,0.0,0.0,77,0.00,,BKN034,0.00,VWS V15.00,2013-11-12 18:00:00,
2013-11-12 10:02:00,59.8,52.9,30.18,ENE,78,0.0,0.0,78,0.00,,BKN090,0.00,VWS V14.00,2013-11-12 18:02:00,
2013-11-12 10:07:00,59.9,53.0,30.17,East,79,0.0,0.0,78,0.00,,BKN090,0.00,VWS V14.00,2013-11-12 18:07:00,
2013-11-12 10:12:00,60.3,52.7,30.17,East,79,0.0,0.0,76,0.00,,BKN090,0.00,VWS V14.00,2013-11-12 18:12:00,
2013-11-12 10:17:00,60.7,52.4,30.17,East,79,0.0,0.0,74,0.00,,BKN090,0.00,VWS V14.00,2013-11-12 18:17:00,
2013-11-12 10:22:00,61.1,52.8,30.17,East,79,0.0,0.0,74,0.00,,BKN090,0.00,VWS V14.00,2013-11-12 18:22:00,
2013-11-12 10:27:00,61.5,52.4,30.17,ENE,78,0.0,0.0,72,0.00,,BKN090,0.00,VWS V14.00,2013-11-12 18:27:00,
2013-11-12 10:30:00,61.8,53.1,30.17,East,79,0.0,0.0,73,0.00,,BKN034,0.00,VWS V15.00,2013-11-12 18:30:00,
2013-11-12 10:32:00,61.7,52.2,30.17,East,79,0.0,0.0,71,0.00,,BKN090,0.00,VWS V14.00,2013-11-12 18:32:00,
2013-11-12 10:37:00,62.2,52.7,30.18,ENE,78,0.0,0.0,71,0.00,,BKN090,0.00,VWS V14.00,2013-11-12 18:37:00,
2013-11-12 10:42:00,62.5,52.6,30.18,NNE,26,0.0,0.0,70,0.00,,BKN090,0.00,VWS V14.00,2013-11-12 18:42:00,
2013-11-12 10:47:00,62.9,52.6,30.17,NNE,24,0.0,0.0,69,0.00,,BKN090,0.00,VWS V14.00,2013-11-12 18:47:00,
2013-11-12 10:52:00,62.7,52.4,30.17,NNE,24,0.0,0.0,69,0.00,,BKN090,0.00,VWS V14.00,2013-11-12 18:52:00,
2013-11-12 10:57:00,63.5,53.2,30.17,NNE,24,0.0,0.0,69,0.00,,BKN090,0.00,VWS V14.00,2013-11-12 18:57:00,
2013-11-12 11:00:00,63.5,52.4,30.17,NNE,24,0.0,0.0,67,0.00,,BKN034,0.00,VWS V15.00,2013-11-12 19:00:00,
2013-11-12 11:02:00,63.7,52.5,30.17,NNE,24,0.0,0.0,67,0.00,,BKN090,0.00,VWS V14.00,2013-11-12 19:02:00,
2013-11-12 11:07:00,64.4,52.4,30.17,NNE,24,0.0,0.0,65,0.00,,BKN090,0.00,VWS V14.00,2013-11-12 19:07:00,
2013-11-12 11:12:00,65.5,52.6,30.17,NNE,20,0.0,0.0,63,0.00,,BKN090,0.00,VWS V14.00,2013-11-12 19:12:00,
2013-11-12 11:17:00,66.1,51.8,30.17,NNE,20,0.0,0.0,60,0.00,,BKN090,0.00,VWS V14.00,2013-11-12 19:17:00,
2013-11-12 11:22:00,66.1,51.8,30.17,NNE,20,0.0,0.0,60,0.00,,BKN090,0.00,VWS V14.00,2013-11-12 19:22:00,
2013-11-12 11:27:00,67.3,53.0,30.17,NNE,21,0.0,0.0,60,0.00,,BKN090,0.00,VWS V14.00,2013-11-12 19:27:00,
2013-11-12 11:30:00,67.3,51.6,30.17,NNE,22,0.0,0.0,57,0.00,,BKN034,0.00,VWS V15.00,2013-11-12 19:30:00,
2013-11-12 11:32:00,67.4,52.1,30.16,NNE,22,0.0,0.0,58,0.00,,BKN090,0.00,VWS V14.00,2013-11-12 19:32:00,
2013-11-12 11:37:00,68.1,52.3,30.16,NNE,22,0.0,0.0,57,0.00,,BKN090,0.00,VWS V14.00,2013-11-12 19:37:00,
2013-11-12 11:42:00,68.0,52.2,30.16,NNE,19,0.0,0.0,57,0.00,,BKN090,0.00,VWS V14.00,2013-11-12 19:42:00,
2013-11-12 11:47:00,68.4,52.1,30.16,NNE,19,0.0,0.0,56,0.00,,BKN120,0.00,VWS V14.00,2013-11-12 19:47:00,
2013-11-12 11:52:00,68.7,51.9,30.15,NNE,19,0.0,0.0,55,0.00,,BKN120,0.00,VWS V14.00,2013-11-12 19:52:00,
2013-11-12 11:57:00,69.3,53.0,30.15,NNE,19,0.0,0.0,56,0.00,,BKN120,0.00,VWS V14.00,2013-11-12 19:57:00,
2013-11-12 12:00:00,69.5,53.1,30.15,NNE,19,0.0,0.0,56,0.00,,BKN034,0.00,VWS V15.00,2013-11-12 20:00:00,
2013-11-12 12:02:00,70.1,53.2,30.15,NNE,19,0.0,0.0,55,0.00,,BKN120,0.00,VWS V14.00,2013-11-12 20:02:00,
2013-11-12 12:07:00,69.9,53.5,30.14,NNE,24,0.0,0.0,56,0.00,,BKN120,0.00,VWS V14.00,2013-11-12 20:07:00,
2013-11-12 12:12:00,70.4,54.0,30.14,NNE,24,0.0,0.0,56,0.00,,BKN120,0.00,VWS V14.00,2013-11-12 20:12:00,
2013-11-12 12:17:00,70.8,54.8,30.14,NNE,24,0.0,0.0,57,0.00,,BKN120,0.00,VWS V14.00,2013-11-12 20:17:00,
2013-11-12 12:22:00,71.1,54.6,30.14,NNE,22,0.0,0.0,56,0.00,,BKN120,0.00,VWS V14.00,2013-11-12 20:22:00,
2013-11-12 12:27:00,71.9,53.9,30.14,NNE,22,0.0,0.0,53,0.00,,BKN120,0.00,VWS V14.00,2013-11-12 20:27:00,
2013-11-12 12:30:00,72.1,54.0,30.13,NNE,22,0.0,0.0,53,0.00,,BKN034,0.00,VWS V15.00,2013-11-12 20:30:00,
2013-11-12 12:32:00,72.0,53.4,30.13,NNE,22,0.0,0.0,52,0.00,,BKN120,0.00,VWS V14.00,2013-11-12 20:32:00,
2013-11-12 12:37:00,72.6,53.5,30.13,NNE,22,0.0,0.0,51,0.00,,BKN120,0.00,VWS V14.00,2013-11-12 20:37:00,
2013-11-12 12:42:00,72.7,51.3,30.14,NNE,22,0.0,0.0,47,0.00,,BKN120,0.00,VWS V14.00,2013-11-12 20:42:00,
2013-11-12 12:47:00,73.5,52.1,30.13,NNE,22,0.0,0.0,47,0.00,,BKN110,0.00,VWS V14.00,2013-11-12 20:47:00,
2013-11-12 12:52:00,73.6,52.2,30.13,NNE,22,0.0,0.0,47,0.00,,BKN110,0.00,VWS V14.00,2013-11-12 20:52:00,
2013-11-12 12:57:00,73.8,52.3,30.13,NNE,22,0.0,0.0,47,0.00,,BKN110,0.00,VWS V14.00,2013-11-12 20:57:00,
2013-11-12 13:00:00,73.6,52.7,30.13,NNE,22,0.0,0.0,48,0.00,,BKN034,0.00,VWS V15.00,2013-11-12 21:00:00,
2013-11-12 13:02:00,73.7,52.8,30.13,NNE,22,0.0,0.0,48,0.00,,BKN110,0.00,VWS V14.00,2013-11-12 21:02:00,
2013-11-12 13:07:00,74.0,52.5,30.12,NNE,22,0.0,0.0,47,0.00,,BKN110,0.00,VWS V14.00,2013-11-12 21:07:00,
2013-11-12 13:12:00,73.8,52.3,30.13,NNE,21,0.0,0.0,47,0.00,,BKN110,0.00,VWS V14.00,2013-11-12 21:12:00,
2013-11-12 13:17:00,73.5,52.1,30.12,NNE,21,0.0,0.0,47,0.00,,BKN110,0.00,VWS V14.00,2013-11-12 21:17:00,
2013-11-12 13:22:00,73.8,52.3,30.13,NNE,21,0.0,0.0,47,0.00,,BKN110,0.00,VWS V14.00,2013-11-12 21:22:00,
2013-11-12 13:27:00,74.1,53.2,30.12,NNE,21,0.0,0.0,48,0.00,,BKN110,0.00,VWS V14.00,2013-11-12 21:27:00,
2013-11-12 13:30:00,74.3,52.8,30.12,NNE,21,0.0,0.0,47,0.00,,BKN034,0.00,VWS V15.00,2013-11-12 21:30:00,
2013-11-12 13:32:00,74.8,52.7,30.12,NNE,21,0.0,0.0,46,0.00,,BKN110,0.00,VWS V14.00,2013-11-12 21:32:00,
2013-11-12 13:37:00,76.1,53.2,30.12,NNE,21,0.0,0.0,45,0.00,,BKN110,0.00,VWS V14.00,2013-11-12 21:37:00,
2013-11-12 13:42:00,77.5,53.9,30.11,NNE,22,0.0,0.0,44,0.00,,BKN110,0.00,VWS V14.00,2013-11-12 21:42:00,
2013-11-12 13:47:00,78.2,52.6,30.12,NNE,22,0.0,0.0,41,0.00,,BKN120,0.00,VWS V14.00,2013-11-12 21:47:00,
2013-11-12 13:52:00,78.9,53.2,30.11,NNE,22,0.0,0.0,41,0.00,,BKN120,0.00,VWS V14.00,2013-11-12 21:52:00,
2013-11-12 13:57:00,79.5,51.7,30.12,NNE,20,0.0,0.0,38,0.00,,BKN120,0.00,VWS V14.00,2013-11-12 21:57:00,
2013-11-12 14:00:00,79.5,51.7,30.11,NNE,20,0.0,0.0,38,0.00,,BKN034,0.00,VWS V15.00,2013-11-12 22:00:00,
2013-11-12 14:02:00,79.6,51.1,30.11,NNE,20,0.0,0.0,37,0.00,,BKN120,0.00,VWS V14.00,2013-11-12 22:02:00,
2013-11-12 14:07:00,80.1,51.5,30.11,NNE,20,0.0,0.0,37,0.00,,BKN120,0.00,VWS V14.00,2013-11-12 22:07:00,
2013-11-12 14:12:00,80.8,51.4,30.11,NNE,20,0.0,0.0,36,0.00,,BKN120,0.00,VWS V14.00,2013-11-12 22:12:00,
2013-11-12 14:17:00,81.2,49.4,30.11,NNE,19,0.0,0.0,33,0.00,,BKN120,0.00,VWS V14.00,2013-11-12 22:17:00,
2013-11-12 14:22:00,81.5,51.2,30.11,NE,37,0.0,0.0,35,0.00,,BKN120,0.00,VWS V14.00,2013-11-12 22:22:00,
2013-11-12 14:27:00,82.1,51.8,30.11,NE,37,0.0,0.0,35,0.00,,BKN120,0.00,VWS V14.00,2013-11-12 22:27:00,
2013-11-12 14:30:00,82.4,52.8,30.11,NE,37,0.0,0.0,36,0.00,,BKN034,0.00,VWS V15.00,2013-11-12 22:30:00,
2013-11-12 14:32:00,82.3,52.7,30.11,NE,37,0.0,0.0,36,0.00,,BKN120,0.00,VWS V14.00,2013-11-12 22:32:00,
2013-11-12 14:37:00,82.5,52.9,30.11,NE,37,0.0,0.0,36,0.00,,BKN120,0.00,VWS V14.00,2013-11-12 22:37:00,
2013-11-12 14:42:00,82.8,53.9,30.11,NE,37,0.0,0.0,37,0.00,,BKN120,0.00,VWS V14.00,2013-11-12 22:42:00,
2013-11-12 14:47:00,83.0,52.6,30.12,NE,37,0.0,0.0,35,0.00,,BKN120,0.00,VWS V14.00,2013-11-12 22:47:00,
2013-11-12 14:52:00,83.2,52.7,30.11,NE,37,0.0,0.0,35,0.00,,BKN120,0.00,VWS V14.00,2013-11-12 22:52:00,
2013-11-12 14:57:00,83.7,52.4,30.11,NE,35,0.0,0.0,34,0.00,,BKN120,0.00,VWS V14.00,2013-11-12 22:57:00,
2013-11-12 15:00:00,83.4,51.3,30.12,NE,35,0.0,0.0,33,0.00,,BKN034,0.00,VWS V15.00,2013-11-12 23:00:00,
2013-11-12 15:02:00,83.5,51.4,30.12,North,8,0.0,0.0,33,0.00,,BKN120,0.00,VWS V14.00,2013-11-12 23:02:00,
2013-11-12 15:07:00,83.1,52.6,30.11,North,4,0.0,0.0,35,0.00,,BKN120,0.00,VWS V14.00,2013-11-12 23:07:00,
2013-11-12 15:12:00,83.1,55.6,30.12,North,1,0.0,0.0,39,0.00,,BKN120,0.00,VWS V14.00,2013-11-12 23:12:00,
2013-11-12 15:17:00,83.1,55.6,30.11,North,1,0.0,0.0,39,0.00,,BKN120,0.00,VWS V14.00,2013-11-12 23:17:00,
2013-11-12 15:22:00,82.5,55.8,30.11,North,1,0.0,0.0,40,0.00,,BKN120,0.00,VWS V14.00,2013-11-12 23:22:00,
2013-11-12 15:27:00,82.2,56.2,30.12,North,359,0.0,0.0,41,0.00,,BKN120,0.00,VWS V14.00,2013-11-12 23:27:00,
2013-11-12 15:30:00,82.2,56.2,30.12,North,7,0.0,0.0,41,0.00,,BKN034,0.00,VWS V15.00,2013-11-12 23:30:00,
2013-11-12 15:32:00,81.3,56.0,30.11,NNW,346,0.0,0.0,42,0.00,,BKN120,0.00,VWS V14.00,2013-11-12 23:32:00,
2013-11-12 15:37:00,80.7,56.2,30.12,North,0,0.0,0.0,43,0.00,,BKN120,0.00,VWS V14.00,2013-11-12 23:37:00,
2013-11-12 15:42:00,80.1,56.2,30.11,NNW,340,0.0,0.0,44,0.00,,BKN120,0.00,VWS V14.00,2013-11-12 23:42:00,
2013-11-12 15:47:00,79.4,55.0,30.11,NNW,340,0.0,0.0,43,0.00,,CLR,0.00,VWS V14.00,2013-11-12 23:47:00,
2013-11-12 15:52:00,79.5,54.4,30.12,NW,321,0.0,0.0,42,0.00,,CLR,0.00,VWS V14.00,2013-11-12 23:52:00,
2013-11-12 15:57:00,78.8,53.8,30.11,North,356,0.0,0.0,42,0.00,,CLR,0.00,VWS V14.00,2013-11-12 23:57:00,
2013-11-12 16:00:00,78.3,53.3,30.11,NW,323,0.0,0.0,42,0.00,,BKN034,0.00,VWS V15.00,2013-11-13 00:00:00,
2013-11-12 16:02:00,77.8,53.5,30.11,North,355,0.0,0.0,43,0.00,,CLR,0.00,VWS V14.00,2013-11-13 00:02:00,
2013-11-12 16:07:00,77.8,54.2,30.11,North,355,0.0,0.0,44,0.00,,CLR,0.00,VWS V14.00,2013-11-13 00:07:00,
2013-11-12 16:12:00,77.3,53.1,30.11,North,0,0.0,0.0,43,0.00,,CLR,0.00,VWS V14.00,2013-11-13 00:12:00,
2013-11-12 16:17:00,76.9,53.3,30.11,NW,318,0.0,0.0,44,0.00,,CLR,0.00,VWS V14.00,2013-11-13 00:17:00,
2013-11-12 16:22:00,76.5,53.0,30.11,North,0,0.0,0.0,44,0.00,,CLR,0.00,VWS V14.00,2013-11-13 00:22:00,
2013-11-12 16:27:00,76.0,53.2,30.11,North,353,0.0,0.0,45,0.00,,CLR,0.00,VWS V14.00,2013-11-13 00:27:00,
2013-11-12 16:30:00,75.9,53.1,30.11,North,0,0.0,0.0,45,0.00,,BKN034,0.00,VWS V15.00,2013-11-13 00:30:00,
2013-11-12 16:32:00,75.7,52.9,30.11,NW,322,0.0,0.0,45,0.00,,CLR,0.00,VWS V14.00,2013-11-13 00:32:00,
2013-11-12 16:37:00,75.4,53.8,30.11,NW,322,0.0,0.0,47,0.00,,CLR,0.00,VWS V14.00,2013-11-13 00:37:00,
2013-11-12 16:42:00,75.0,54.0,30.11,NW,319,0.0,0.0,48,0.00,,CLR,0.00,VWS V14.00,2013-11-13 00:42:00,
2013-11-12 16:47:00,74.4,53.5,30.11,NW,319,0.0,0.0,48,0.00,,CLR,0.00,VWS V14.00,2013-11-13 00:47:00,
2013-11-12 16:52:00,74.0,53.7,30.11,NW,321,0.0,0.0,49,0.00,,CLR,0.00,VWS V14.00,2013-11-13 00:52:00,
2013-11-12 16:57:00,73.3,53.0,30.12,NW,321,0.0,0.0,49,0.00,,CLR,0.00,VWS V14.00,2013-11-13 00:57:00,
2013-11-12 17:00:00,73.3,53.6,30.12,NW,319,0.0,0.0,50,0.00,,BKN034,0.00,VWS V15.00,2013-11-13 01:00:00,
2013-11-12 17:02:00,72.7,53.5,30.12,NW,319,0.0,0.0,51,0.00,,CLR,0.00,VWS V14.00,2013-11-13 01:02:00,
2013-11-12 17:07:00,72.5,53.9,30.12,NW,318,0.0,0.0,52,0.00,,CLR,0.00,VWS V14.00,2013-11-13 01:07:00,
2013-11-12 17:12:00,71.8,53.2,30.12,NW,320,0.0,0.0,52,0.00,,CLR,0.00,VWS V14.00,2013-11-13 01:12:00,
2013-11-12 17:17:00,70.9,52.9,30.12,NW,326,0.0,0.0,53,0.00,,CLR,0.00,VWS V14.00,2013-11-13 01:17:00,
2013-11-12 17:22:00,70.6,52.7,30.12,NW,323,0.0,0.0,53,0.00,,CLR,0.00,VWS V14.00,2013-11-13 01:22:00,
2013-11-12 17:27:00,70.1,52.2,30.13,NW,323,0.0,0.0,53,0.00,,CLR,0.00,VWS V14.00,2013-11-13 01:27:00,
2013-11-12 17:30:00,69.6,52.2,30.13,NW,323,0.0,0.0,54,0.00,,BKN034,0.00,VWS V15.00,2013-11-13 01:30:00,
2013-11-12 17:32:00,69.6,52.2,30.13,NNW,328,0.0,0.0,54,0.00,,CLR,0.00,VWS V14.00,2013-11-13 01:32:00,
2013-11-12 17:37:00,69.2,52.4,30.13,NW,318,0.0,0.0,55,0.00,,CLR,0.00,VWS V14.00,2013-11-13 01:37:00,
2013-11-12 17:42:00,68.7,51.9,30.14,NW,319,0.0,0.0,55,0.00,,CLR,0.00,VWS V14.00,2013-11-13 01:42:00,
2013-11-12 17:47:00,68.0,51.7,30.13,NW,324,0.0,0.0,56,0.00,,CLR,0.00,VWS V14.00,2013-11-13 01:47:00,
2013-11-12 17:52:00,67.2,51.0,30.13,NW,319,0.0,0.0,56,0.00,,CLR,0.00,VWS V14.00,2013-11-13 01:52:00,
2013-11-12 17:57:00,67.0,51.3,30.13,NW,322,0.0,0.0,57,0.00,,CLR,0.00,VWS V14.00,2013-11-13 01:57:00,
2013-11-12 18:00:00,66.8,51.1,30.13,NW,322,0.0,0.0,57,0.00,,BKN034,0.00,VWS V15.00,2013-11-13 02:00:00,
2013-11-12 18:02:00,66.4,50.7,30.14,NW,322,0.0,0.0,57,0.00,,CLR,0.00,VWS V14.00,2013-11-13 02:02:00,
2013-11-12 18:07:00,65.8,50.6,30.14,NW,318,0.0,0.0,58,0.00,,CLR,0.00,VWS V14.00,2013-11-13 02:07:00,
2013-11-12 18:12:00,65.7,50.5,30.14,NW,322,0.0,0.0,58,0.00,,CLR,0.00,VWS V14.00,2013-11-13 02:12:00,
2013-11-12 18:17:00,65.2,50.5,30.14,NW,320,0.0,0.0,59,0.00,,CLR,0.00,VWS V14.00,2013-11-13 02:17:00,
2013-11-12 18:22:00,64.8,50.6,30.14,NW,326,0.0,0.0,60,0.00,,CLR,0.00,VWS V14.00,2013-11-13 02:22:00,
2013-11-12 18:27:00,64.4,50.2,30.15,NW,318,0.0,0.0,60,0.00,,CLR,0.00,VWS V14.00,2013-11-13 02:27:00,
2013-11-12 18:30:00,64.3,49.7,30.14,NW,324,0.0,0.0,59,0.00,,BKN034,0.00,VWS V15.00,2013-11-13 02:30:00,
2013-11-12 18:32:00,64.1,49.5,30.15,NW,320,0.0,0.0,59,0.00,,CLR,0.00,VWS V14.00,2013-11-13 02:32:00,
2013-11-12 18:37:00,63.6,49.0,30.15,NW,319,0.0,0.0,59,0.00,,CLR,0.00,VWS V14.00,2013-11-13 02:37:00,
2013-11-12 18:42:00,63.6,49.5,30.15,NW,325,0.0,0.0,60,0.00,,CLR,0.00,VWS V14.00,2013-11-13 02:42:00,
2013-11-12 18:47:00,63.1,49.5,30.15,NW,321,0.0,0.0,61,0.00,,CLR,0.00,VWS V14.00,2013-11-13 02:47:00,
2013-11-12 18:52:00,62.9,49.3,30.15,NW,323,0.0,0.0,61,0.00,,CLR,0.00,VWS V14.00,2013-11-13 02:52:00,
2013-11-12 18:57:00,62.5,49.8,30.15,NW,322,0.0,0.0,63,0.00,,CLR,0.00,VWS V14.00,2013-11-13 02:57:00,
2013-11-12 19:00:00,62.3,49.6,30.15,NW,321,0.0,0.0,63,0.00,,BKN034,0.00,VWS V15.00,2013-11-13 03:00:00,
2013-11-12 19:02:00,62.3,49.6,30.15,NW,317,0.0,0.0,63,0.00,,CLR,0.00,VWS V14.00,2013-11-13 03:02:00,
2013-11-12 19:07:00,61.8,49.5,30.15,NW,323,0.0,0.0,64,0.00,,CLR,0.00,VWS V14.00,2013-11-13 03:07:00,
2013-11-12 19:12:00,61.5,49.2,30.15,NW,323,0.0,0.0,64,0.00,,CLR,0.00,VWS V14.00,2013-11-13 03:12:00,
2013-11-12 19:17:00,61.1,49.3,30.15,NW,324,0.0,0.0,65,0.00,,CLR,0.00,VWS V14.00,2013-11-13 03:17:00,
2013-11-12 19:22:00,60.5,49.1,30.16,NW,321,0.0,0.0,66,0.00,,CLR,0.00,VWS V14.00,2013-11-13 03:22:00,
2013-11-12 19:27:00,60.3,48.9,30.16,NW,321,0.0,0.0,66,0.00,,CLR,0.00,VWS V14.00,2013-11-13 03:27:00,
2013-11-12 19:30:00,60.2,49.2,30.16,NW,320,0.0,0.0,67,0.00,,BKN034,0.00,VWS V15.00,2013-11-13 03:30:00,
2013-11-12 19:32:00,60.0,49.0,30.16,NW,322,0.0,0.0,67,0.00,,CLR,0.00,VWS V14.00,2013-11-13 03:32:00,
2013-11-12 19:37:00,59.9,49.3,30.16,NW,320,0.0,0.0,68,0.00,,CLR,0.00,VWS V14.00,2013-11-13 03:37:00,
2013-11-12 19:42:00,59.4,48.8,30.16,NW,322,0.0,0.0,68,0.00,,CLR,0.00,VWS V14.00,2013-11-13 03:42:00,
2013-11-12 19:47:00,59.1,49.0,30.16,NW,320,0.0,0.0,69,0.00,,CLR,0.00,VWS V14.00,2013-11-13 03:47:00,
2013-11-12 19:52:00,58.7,49.0,30.16,NW,322,0.0,0.0,70,0.00,,CLR,0.00,VWS V14.00,2013-11-13 03:52:00,
2013-11-12 19:57:00,58.6,48.9,30.16,NW,322,0.0,0.0,70,0.00,,CLR,0.00,VWS V14.00,2013-11-13 03:57:00,
2013-11-12 20:00:00,58.6,49.2,30.16,NW,324,0.0,0.0,71,0.00,,BKN034,0.00,VWS V15.00,2013-11-13 04:00:00,
2013-11-12 20:02:00,58.4,49.0,30.16,NW,324,0.0,0.0,71,0.00,,CLR,0.00,VWS V14.00,2013-11-13 04:02:00,
2013-11-12 20:07:00,58.2,48.8,30.16,NW,320,0.0,0.0,71,0.00,,CLR,0.00,VWS V14.00,2013-11-13 04:07:00,
2013-11-12 20:12:00,58.0,48.7,30.16,NW,320,0.0,0.0,71,0.00,,CLR,0.00,VWS V14.00,2013-11-13 04:12:00,
2013-11-12 20:17:00,57.9,48.9,30.16,NW,321,0.0,0.0,72,0.00,,CLR,0.00,VWS V14.00,2013-11-13 04:17:00,
2013-11-12 20:22:00,57.5,48.9,30.16,NW,322,0.0,0.0,73,0.00,,CLR,0.00,VWS V14.00,2013-11-13 04:22:00,
2013-11-12 20:27:00,57.3,48.7,30.16,NW,321,0.0,0.0,73,0.00,,CLR,0.00,VWS V14.00,2013-11-13 04:27:00,
2013-11-12 20:30:00,57.1,48.9,30.16,NW,322,0.0,0.0,74,0.00,,BKN034,0.00,VWS V15.00,2013-11-13 04:30:00,
2013-11-12 20:32:00,57.0,48.8,30.16,NW,318,0.0,0.0,74,0.00,,CLR,0.00,VWS V14.00,2013-11-13 04:32:00,
2013-11-12 20:37:00,56.8,48.6,30.17,NW,320,0.0,0.0,74,0.00,,CLR,0.00,VWS V14.00,2013-11-13 04:37:00,
2013-11-12 20:42:00,56.5,48.3,30.17,NW,322,0.0,0.0,74,0.00,,CLR,0.00,VWS V14.00,2013-11-13 04:42:00,
2013-11-12 20:47:00,56.6,48.8,30.17,NNW,328,0.0,0.0,75,0.00,,CLR,0.00,VWS V14.00,2013-11-13 04:47:00,
2013-11-12 20:52:00,56.2,48.8,30.18,NW,320,0.0,0.0,76,0.00,,CLR,0.00,VWS V14.00,2013-11-13 04:52:00,
2013-11-12 20:57:00,56.2,48.8,30.17,NW,323,0.0,0.0,76,0.00,,CLR,0.00,VWS V14.00,2013-11-13 04:57:00,
2013-11-12 21:00:00,55.8,48.4,30.17,NW,319,0.0,0.0,76,0.00,,BKN034,0.00,VWS V15.00,2013-11-13 05:00:00,
2013-11-12 21:01:00,55.8,48.7,30.17,NW,321,0.0,0.0,77,0.00,,CLR,0.00,VWS V14.00,2013-11-13 05:01:00,
2013-11-12 21:06:00,55.6,48.5,30.17,NW,316,0.0,0.0,77,0.00,,CLR,0.00,VWS V14.00,2013-11-13 05:06:00,
2013-11-12 21:11:00,55.4,48.3,30.17,NW,323,0.0,0.0,77,0.00,,CLR,0.00,VWS V14.00,2013-11-13 05:11:00,
2013-11-12 21:16:00,55.5,48.4,30.17,NW,322,0.0,0.0,77,0.00,,CLR,0.00,VWS V14.00,2013-11-13 05:16:00,
2013-11-12 21:21:00,55.2,48.1,30.17,NW,319,0.0,0.0,77,0.00,,CLR,0.00,VWS V14.00,2013-11-13 05:21:00,
2013-11-12 21:26:00,54.9,48.2,30.18,NW,325,0.0,0.0,78,0.00,,CLR,0.00,VWS V14.00,2013-11-13 05:26:00,
2013-11-12 21:30:00,55.0,48.3,30.17,NW,323,0.0,0.0,78,0.00,,BKN034,0.00,VWS V15.00,2013-11-13 05:30:00,
2013-11-12 21:31:00,54.8,48.1,30.17,NW,322,0.0,0.0,78,0.00,,CLR,0.00,VWS V14.00,2013-11-13 05:31:00,
2013-11-12 21:36:00,54.6,47.9,30.17,NW,321,0.0,0.0,78,0.00,,CLR,0.00,VWS V14.00,2013-11-13 05:36:00,
2013-11-12 21:41:00,54.4,48.0,30.17,NW,320,0.0,0.0,79,0.00,,CLR,0.00,VWS V14.00,2013-11-13 05:41:00,
2013-11-12 21:46:00,54.1,47.7,30.17,NW,319,0.0,0.0,79,0.00,,CLR,0.00,VWS V14.00,2013-11-13 05:46:00,
2013-11-12 21:51:00,54.2,48.2,30.17,NW,320,0.0,0.0,80,0.00,,CLR,0.00,VWS V14.00,2013-11-13 05:51:00,
2013-11-12 21:56:00,53.9,47.9,30.17,NW,320,0.0,0.0,80,0.00,,CLR,0.00,VWS V14.00,2013-11-13 05:56:00,
2013-11-12 22:00:00,53.6,47.6,30.17,NW,319,0.0,0.0,80,0.00,,BKN034,0.00,VWS V15.00,2013-11-13 06:00:00,
2013-11-12 22:01:00,53.8,47.8,30.17,NW,321,0.0,0.0,80,0.00,,CLR,0.00,VWS V14.00,2013-11-13 06:01:00,
2013-11-12 22:06:00,53.4,47.4,30.17,NW,319,0.0,0.0,80,0.00,,CLR,0.00,VWS V14.00,2013-11-13 06:06:00,
2013-11-12 22:11:00,53.3,47.3,30.17,NW,321,0.0,0.0,80,0.00,,CLR,0.00,VWS V14.00,2013-11-13 06:11:00,
2013-11-12 22:16:00,53.1,47.1,30.17,NW,320,0.0,0.0,80,0.00,,CLR,0.00,VWS V14.00,2013-11-13 06:16:00,
2013-11-12 22:21:00,53.0,47.0,30.17,NW,320,0.0,0.0,80,0.00,,CLR,0.00,VWS V14.00,2013-11-13 06:21:00,
2013-11-12 22:26:00,52.8,47.1,30.17,NW,324,0.0,0.0,81,0.00,,CLR,0.00,VWS V14.00,2013-11-13 06:26:00,
2013-11-12 22:30:00,52.8,47.1,30.17,NW,319,0.0,0.0,81,0.00,,BKN034,0.00,VWS V15.00,2013-11-13 06:30:00,
2013-11-12 22:31:00,52.8,47.1,30.17,NW,321,0.0,0.0,81,0.00,,CLR,0.00,VWS V14.00,2013-11-13 06:31:00,
2013-11-12 22:36:00,52.5,46.8,30.17,NW,315,0.0,0.0,81,0.00,,CLR,0.00,VWS V14.00,2013-11-13 06:36:00,
2013-11-12 22:41:00,52.4,46.8,30.17,NW,326,0.0,0.0,81,0.00,,CLR,0.00,VWS V14.00,2013-11-13 06:41:00,
2013-11-12 22:46:00,52.5,46.8,30.17,NW,318,0.0,0.0,81,0.00,,CLR,0.00,VWS V14.00,2013-11-13 06:46:00,
2013-11-12 22:51:00,52.3,46.7,30.17,NW,322,0.0,0.0,81,0.00,,CLR,0.00,VWS V14.00,2013-11-13 06:51:00,
2013-11-12 22:56:00,52.0,46.4,30.17,NW,325,0.0,0.0,81,0.00,,CLR,0.00,VWS V14.00,2013-11-13 06:56:00,
2013-11-12 23:00:00,52.0,46.4,30.17,NW,321,0.0,0.0,81,0.00,,BKN034,0.00,VWS V15.00,2013-11-13 07:00:00,
2013-11-12 23:01:00,51.9,46.3,30.17,NW,320,0.0,0.0,81,0.00,,CLR,0.00,VWS V14.00,2013-11-13 07:01:00,
2013-11-12 23:06:00,52.0,46.7,30.17,NW,322,0.0,0.0,82,0.00,,CLR,0.00,VWS V14.00,2013-11-13 07:06:00,
2013-11-12 23:11:00,51.6,46.3,30.17,NW,319,0.0,0.0,82,0.00,,CLR,0.00,VWS V14.00,2013-11-13 07:11:00,
2013-11-12 23:16:00,51.5,46.2,30.18,NW,319,0.0,0.0,82,0.00,,CLR,0.00,VWS V14.00,2013-11-13 07:16:00,
2013-11-12 23:21:00,51.4,46.1,30.18,NW,318,0.0,0.0,82,0.00,,CLR,0.00,VWS V14.00,2013-11-13 07:21:00,
2013-11-12 23:26:00,51.3,46.0,30.17,NW,319,0.0,0.0,82,0.00,,CLR,0.00,VWS V14.00,2013-11-13 07:26:00,
2013-11-12 23:30:00,51.2,45.9,30.17,NW,321,0.0,0.0,82,0.00,,BKN034,0.00,VWS V15.00,2013-11-13 07:30:00,
2013-11-12 23:31:00,51.2,45.9,30.17,NW,318,0.0,0.0,82,0.00,,CLR,0.00,VWS V14.00,2013-11-13 07:31:00,
2013-11-12 23:36:00,51.0,46.0,30.17,NW,320,0.0,0.0,83,0.00,,CLR,0.00,VWS V14.00,2013-11-13 07:36:00,
2013-11-12 23:41:00,50.9,46.2,30.17,NW,324,0.0,0.0,84,0.00,,CLR,0.00,VWS V14.00,2013-11-13 07:41:00,
2013-11-12 23:46:00,50.9,46.2,30.17,NW,320,0.0,0.0,84,0.00,,CLR,0.00,VWS V14.00,2013-11-13 07:46:00,
2013-11-12 23:51:00,50.8,46.2,30.17,NW,322,0.0,0.0,84,0.00,,CLR,0.00,VWS V14.00,2013-11-13 07:51:00,
2013-11-12 23:56:00,50.9,45.9,30.17,NW,318,0.0,0.0,83,0.00,,CLR,0.00,VWS V14.00,2013-11-13 07:56:00,